Time;durP1;ratioP1;P1;durP2;ratioP2;P2;SDS_P1;SDS_P2;PMS_P1;PMS_P2;Temp;Humidity;BMP_temperature;BMP_pressure;BME280_temperature;BME280_humidity;BME280_pressure;Samples;Min_cycle;Max_cycle;Signal;HPM_P1;HPM_P2
2023/03/29 00:01:08;;;;;;;12.37;4.20;;;11.30;99.90;;;;;;4991306;28;20191;-65
2023/03/29 00:03:35;;;;;;;11.67;3.77;;;11.10;99.90;;;;;;4991231;28;20171;-66
2023/03/29 00:06:01;;;;;;;16.93;4.80;;;11.20;99.90;;;;;;4991191;28;20187;-66
2023/03/29 00:08:28;;;;;;;14.97;4.13;;;11.10;99.90;;;;;;4991376;28;20685;-66
2023/03/29 00:10:55;;;;;;;16.43;4.50;;;11.50;99.90;;;;;;4991415;28;20277;-65
2023/03/29 00:13:21;;;;;;;15.60;3.80;;;11.10;99.90;;;;;;4991823;28;20182;-65
2023/03/29 00:15:47;;;;;;;15.40;3.57;;;11.20;99.90;;;;;;4991694;28;20175;-66
2023/03/29 00:18:12;;;;;;;12.20;4.40;;;11.50;99.90;;;;;;4991423;28;20254;-66
2023/03/29 00:20:38;;;;;;;16.07;3.53;;;11.30;99.90;;;;;;4991250;28;20206;-66
2023/03/29 00:23:04;;;;;;;9.27;3.53;;;11.30;99.90;;;;;;4990713;28;20173;-66
2023/03/29 00:25:30;;;;;;;18.00;3.97;;;11.40;99.90;;;;;;4989896;28;20190;-66
2023/03/29 00:27:55;;;;;;;11.40;3.60;;;11.40;99.90;;;;;;4991222;28;20207;-66
2023/03/29 00:30:21;;;;;;;11.37;3.57;;;11.40;99.90;;;;;;4991459;28;20198;-66
2023/03/29 00:32:46;;;;;;;17.30;4.27;;;11.40;99.90;;;;;;4991501;28;20179;-66
2023/03/29 00:35:12;;;;;;;16.30;4.27;;;11.50;99.90;;;;;;4990922;28;20299;-66
2023/03/29 00:37:38;;;;;;;16.40;3.70;;;11.50;99.90;;;;;;4990147;28;20265;-69
2023/03/29 00:40:08;;;;;;;21.97;3.87;;;11.50;99.90;;;;;;4990660;28;20202;-67
2023/03/29 00:42:34;;;;;;;12.43;3.53;;;11.50;99.90;;;;;;4991143;28;20646;-67
2023/03/29 00:45:21;;;;;;;14.17;3.87;;;11.50;99.90;;;;;;4991322;28;20306;-66
2023/03/29 00:47:55;;;;;;;19.63;4.07;;;11.60;99.90;;;;;;4990924;28;20256;-66
2023/03/29 00:50:39;;;;;;;15.60;3.70;;;11.50;99.90;;;;;;4991027;28;20638;-66
2023/03/29 00:53:13;;;;;;;18.43;4.50;;;11.60;99.90;;;;;;4991194;28;20187;-66
2023/03/29 00:55:48;;;;;;;18.53;3.77;;;11.50;99.90;;;;;;4990128;28;20298;-67
2023/03/29 00:58:18;;;;;;;19.20;3.33;;;11.60;99.90;;;;;;4991066;28;20174;-66
2023/03/29 01:00:51;;;;;;;16.50;3.47;;;11.50;99.90;;;;;;4990702;28;20186;-67
2023/03/29 01:03:23;;;;;;;12.90;3.73;;;11.60;99.90;;;;;;4989793;28;20198;-66
2023/03/29 01:05:55;;;;;;;18.33;3.60;;;11.60;99.90;;;;;;4990770;28;20179;-66
2023/03/29 01:08:27;;;;;;;14.47;3.37;;;11.50;99.90;;;;;;4990700;28;20335;-67
2023/03/29 01:11:08;;;;;;;14.67;3.37;;;11.50;99.90;;;;;;4991002;28;20171;-66
2023/03/29 01:13:58;;;;;;;16.57;3.40;;;11.70;99.90;;;;;;4990405;28;20202;-66
2023/03/29 01:16:27;;;;;;;20.67;3.87;;;11.60;99.90;;;;;;4990887;28;20179;-66
2023/03/29 01:18:53;;;;;;;17.10;3.33;;;11.60;99.90;;;;;;4990806;28;20180;-66
2023/03/29 01:21:28;;;;;;;15.47;3.30;;;11.60;99.90;;;;;;4991009;28;20230;-67
2023/03/29 01:24:23;;;;;;;15.73;3.50;;;11.60;99.90;;;;;;4990511;28;20175;-66
2023/03/29 01:27:08;;;;;;;16.27;3.40;;;11.60;99.90;;;;;;4990876;28;20213;-66
2023/03/29 01:29:59;;;;;;;18.90;3.50;;;11.60;99.90;;;;;;4990894;28;20219;-64
2023/03/29 01:32:40;;;;;;;17.13;3.10;;;11.60;99.90;;;;;;4973480;28;20168;-67
2023/03/29 01:35:19;;;;;;;17.13;2.90;;;11.60;99.90;;;;;;4992437;28;20242;-65
2023/03/29 01:37:55;;;;;;;19.23;3.67;;;11.50;99.90;;;;;;4994430;28;20197;-65
2023/03/29 01:40:21;;;;;;;16.97;3.77;;;11.60;99.90;;;;;;4994264;28;20653;-66
2023/03/29 01:43:05;;;;;;;16.90;3.40;;;11.60;99.90;;;;;;4994222;28;20247;-65
2023/03/29 01:45:48;;;;;;;14.63;3.47;;;11.60;99.90;;;;;;4994210;28;20186;-65
2023/03/29 01:48:36;;;;;;;15.30;2.90;;;11.70;99.90;;;;;;4993961;28;20203;-66
2023/03/29 01:51:13;;;;;;;18.43;3.07;;;11.60;99.90;;;;;;4993894;28;20175;-66
2023/03/29 01:53:44;;;;;;;14.33;3.13;;;11.60;99.90;;;;;;4992327;28;20195;-66
2023/03/29 01:56:16;;;;;;;14.00;2.60;;;11.60;99.90;;;;;;4994004;28;20179;-66
2023/03/29 01:58:46;;;;;;;13.87;3.33;;;11.60;99.90;;;;;;4993599;28;20179;-67
2023/03/29 02:01:16;;;;;;;15.00;2.93;;;11.50;99.90;;;;;;4993299;28;20270;-67
2023/03/29 02:03:48;;;;;;;14.50;3.23;;;12.00;99.90;;;;;;4992756;28;20171;-67
2023/03/29 02:06:17;;;;;;;11.90;2.73;;;11.50;99.90;;;;;;4993910;28;20630;-67
2023/03/29 02:08:45;;;;;;;17.50;3.30;;;11.50;99.90;;;;;;4993489;28;20183;-67
2023/03/29 02:11:11;;;;;;;21.20;3.40;;;11.50;99.90;;;;;;4993649;28;20171;-67
2023/03/29 02:13:36;;;;;;;13.70;2.90;;;11.50;99.90;;;;;;4993555;28;20183;-67
2023/03/29 02:16:08;;;;;;;10.70;2.90;;;11.50;99.90;;;;;;4993488;28;20536;-67
2023/03/29 02:18:35;;;;;;;9.13;2.43;;;11.50;99.90;;;;;;4976174;28;20278;-67
2023/03/29 02:21:01;;;;;;;13.40;2.90;;;11.50;99.90;;;;;;4993366;28;20234;-67
2023/03/29 02:23:33;;;;;;;6.00;2.30;;;11.50;99.90;;;;;;4992114;28;20638;-67
2023/03/29 02:26:00;;;;;;;10.33;2.40;;;11.50;99.90;;;;;;4993485;28;20179;-67
2023/03/29 02:28:27;;;;;;;12.00;2.47;;;11.10;99.90;;;;;;4993004;28;20207;-67
2023/03/29 02:31:03;;;;;;;15.70;2.57;;;11.40;99.90;;;;;;4991637;28;20183;-67
2023/03/29 02:33:38;;;;;;;12.67;2.53;;;11.40;99.90;;;;;;4992524;28;20179;-67
2023/03/29 02:36:26;;;;;;;10.37;1.90;;;11.40;99.90;;;;;;4992306;28;20242;-67
2023/03/29 02:38:52;;;;;;;12.43;2.43;;;11.40;99.90;;;;;;4991803;28;20202;-68
2023/03/29 02:41:18;;;;;;;8.87;1.97;;;11.40;99.90;;;;;;4993411;28;20202;-67
2023/03/29 02:43:45;;;;;;;10.10;2.23;;;11.40;99.90;;;;;;4992733;28;20183;-68
2023/03/29 02:46:13;;;;;;;10.20;1.97;;;11.30;99.90;;;;;;4992543;28;20203;-67
2023/03/29 02:48:40;;;;;;;9.73;2.03;;;11.30;99.90;;;;;;4992835;28;20297;-68
2023/03/29 02:51:20;;;;;;;5.67;2.17;;;11.30;99.90;;;;;;4992916;28;20167;-68
2023/03/29 02:53:52;;;;;;;7.00;1.80;;;11.30;99.90;;;;;;4989970;28;20183;-68
2023/03/29 02:56:21;;;;;;;6.67;2.20;;;11.30;99.90;;;;;;4972563;28;20180;-68
2023/03/29 02:58:47;;;;;;;6.83;2.20;;;;;;;;;;4986963;28;20187;-68
2023/03/29 03:01:13;;;;;;;7.63;1.90;;;11.20;99.90;;;;;;4992101;28;20216;-68
2023/03/29 03:03:40;;;;;;;8.43;1.90;;;11.40;99.90;;;;;;4992252;28;20175;-68
2023/03/29 03:06:05;;;;;;;4.70;1.63;;;11.20;99.90;;;;;;4992532;28;20266;-69
2023/03/29 03:08:31;;;;;;;5.83;2.07;;;11.20;99.90;;;;;;4992497;28;20307;-67
2023/03/29 03:10:57;;;;;;;6.07;1.87;;;11.20;99.90;;;;;;4992535;28;20585;-68
2023/03/29 03:13:22;;;;;;;6.83;1.63;;;11.20;99.90;;;;;;4992443;28;20179;-68
2023/03/29 03:15:48;;;;;;;6.43;2.03;;;11.20;99.90;;;;;;4992083;28;20187;-68
2023/03/29 03:18:15;;;;;;;5.77;1.83;;;11.20;99.90;;;;;;4992279;28;20178;-68
2023/03/29 03:20:41;;;;;;;5.67;2.23;;;12.40;99.90;;;;;;4992566;28;20176;-68
2023/03/29 03:23:08;;;;;;;5.43;2.00;;;11.10;99.90;;;;;;4991253;28;20176;-68
2023/03/29 03:25:34;;;;;;;8.00;2.30;;;11.10;99.90;;;;;;4991850;28;20180;-68
2023/03/29 03:28:00;;;;;;;6.37;2.17;;;11.10;99.90;;;;;;4992312;28;20218;-68
2023/03/29 03:30:26;;;;;;;6.40;2.00;;;11.10;99.90;;;;;;4988611;28;20690;-68
2023/03/29 03:32:53;;;;;;;5.67;2.07;;;11.00;99.90;;;;;;4972908;28;20171;-68
2023/03/29 03:35:19;;;;;;;6.97;2.40;;;11.00;99.90;;;;;;4979224;28;20281;-68
2023/03/29 03:37:45;;;;;;;6.00;2.40;;;11.00;99.90;;;;;;4991951;28;20175;-67
2023/03/29 03:40:12;;;;;;;10.17;2.70;;;11.80;99.90;;;;;;4992034;28;20701;-67
2023/03/29 03:42:39;;;;;;;9.50;2.40;;;10.90;99.90;;;;;;4992053;28;20183;-67
2023/03/29 03:45:05;;;;;;;5.70;1.77;;;11.00;99.90;;;;;;4992050;28;20178;-67
2023/03/29 03:47:30;;;;;;;7.67;2.40;;;11.00;99.90;;;;;;4991085;28;20199;-67
2023/03/29 03:49:57;;;;;;;7.93;1.93;;;11.00;99.90;;;;;;4991497;28;20261;-67
2023/03/29 03:52:22;;;;;;;6.27;2.03;;;10.90;99.90;;;;;;4992065;28;20258;-68
2023/03/29 03:54:49;;;;;;;10.47;2.47;;;10.90;99.90;;;;;;4991524;28;20262;-67
2023/03/29 03:57:15;;;;;;;7.17;2.20;;;10.90;99.90;;;;;;4991053;28;20580;-67
2023/03/29 03:59:41;;;;;;;7.97;1.90;;;10.70;99.90;;;;;;4991610;28;20172;-67
2023/03/29 04:02:06;;;;;;;5.73;2.30;;;10.80;99.90;;;;;;4991422;28;20226;-66
2023/03/29 04:04:33;;;;;;;8.00;2.83;;;10.80;99.90;;;;;;4991248;28;20710;-66
2023/03/29 04:07:01;;;;;;;8.97;2.43;;;10.80;99.90;;;;;;4990880;28;20705;-67
2023/03/29 04:09:32;;;;;;;9.03;2.10;;;10.80;99.90;;;;;;4989642;28;20540;-67
2023/03/29 04:11:58;;;;;;;7.73;2.40;;;10.80;99.90;;;;;;4991595;28;20189;-67
2023/03/29 04:14:25;;;;;;;7.83;2.20;;;10.80;99.90;;;;;;4991336;28;20205;-66
2023/03/29 04:16:54;;;;;;;11.83;2.50;;;10.80;99.90;;;;;;4991463;28;20182;-66
2023/03/29 04:19:20;;;;;;;9.13;2.20;;;10.90;99.90;;;;;;4991301;28;20664;-67
2023/03/29 04:21:48;;;;;;;6.30;1.70;;;;;;;;;;4991077;28;20183;-66
2023/03/29 04:24:14;;;;;;;8.00;2.13;;;10.70;99.90;;;;;;4991493;28;20638;-66
2023/03/29 04:26:40;;;;;;;10.60;2.50;;;;;;;;;;4990264;28;20222;-68
2023/03/29 04:29:06;;;;;;;6.10;1.93;;;10.70;99.90;;;;;;4989479;28;20576;-68
2023/03/29 04:31:32;;;;;;;5.03;2.03;;;10.70;99.90;;;;;;4990631;28;20171;-68
2023/03/29 04:33:58;;;;;;;3.97;2.07;;;10.70;99.90;;;;;;4990453;28;20179;-68
2023/03/29 04:36:23;;;;;;;8.13;1.97;;;10.70;99.90;;;;;;4990921;28;20713;-67
2023/03/29 04:38:51;;;;;;;5.90;1.80;;;10.70;99.90;;;;;;4991179;28;20213;-67
2023/03/29 04:41:17;;;;;;;9.00;2.33;;;10.60;99.90;;;;;;4990615;28;20179;-67
2023/03/29 04:43:45;;;;;;;5.80;2.00;;;10.70;99.90;;;;;;4986880;28;20249;-67
2023/03/29 04:46:12;;;;;;;6.63;1.93;;;10.60;99.90;;;;;;4978616;28;20199;-67
2023/03/29 04:48:38;;;;;;;6.57;2.20;;;10.70;99.90;;;;;;4989548;28;20213;-67
2023/03/29 04:51:03;;;;;;;4.07;1.83;;;10.70;99.90;;;;;;4990931;28;20207;-67
2023/03/29 04:53:29;;;;;;;4.30;1.97;;;10.70;99.90;;;;;;4991374;28;20317;-67
2023/03/29 04:55:56;;;;;;;10.20;2.40;;;10.70;99.90;;;;;;4990699;28;20182;-67
2023/03/29 04:58:22;;;;;;;5.37;2.00;;;10.70;99.90;;;;;;4990515;28;20175;-66
2023/03/29 05:00:48;;;;;;;5.17;2.30;;;10.70;99.90;;;;;;4990966;28;20175;-67
2023/03/29 05:03:14;;;;;;;6.10;1.80;;;10.70;99.90;;;;;;4990996;28;20202;-67
2023/03/29 05:05:40;;;;;;;4.50;1.70;;;10.60;99.90;;;;;;4991210;28;20262;-67
2023/03/29 05:08:08;;;;;;;6.37;1.60;;;;;;;;;;4991132;28;20215;-67
2023/03/29 05:10:34;;;;;;;6.73;1.90;;;10.70;99.90;;;;;;4993951;28;20269;-67
2023/03/29 05:13:00;;;;;;;5.40;1.73;;;10.70;99.90;;;;;;4993965;28;20175;-67
2023/03/29 05:15:26;;;;;;;3.97;1.70;;;10.70;99.90;;;;;;4994064;28;20171;-67
2023/03/29 05:17:52;;;;;;;3.80;1.70;;;10.70;99.90;;;;;;4994469;28;20590;-66
2023/03/29 05:20:17;;;;;;;5.03;1.70;;;10.60;99.90;;;;;;4994831;28;20175;-67
2023/03/29 05:22:43;;;;;;;4.60;1.80;;;10.60;99.90;;;;;;4994185;28;20187;-68
2023/03/29 05:25:10;;;;;;;7.80;2.27;;;10.60;99.90;;;;;;4994078;28;20650;-67
2023/03/29 05:27:36;;;;;;;3.30;1.70;;;10.70;99.90;;;;;;4993827;28;20284;-67
2023/03/29 05:30:02;;;;;;;5.20;1.70;;;10.60;99.90;;;;;;4993938;28;20642;-67
2023/03/29 05:32:28;;;;;;;6.07;2.03;;;10.60;99.90;;;;;;4994608;28;20187;-67
2023/03/29 05:34:54;;;;;;;6.83;2.00;;;10.70;99.90;;;;;;4994102;28;20531;-67
2023/03/29 05:37:20;;;;;;;6.20;1.67;;;10.70;99.90;;;;;;4994652;28;20182;-67
2023/03/29 05:39:45;;;;;;;7.87;1.60;;;10.70;99.90;;;;;;4994579;28;20258;-66
2023/03/29 05:42:12;;;;;;;5.30;1.60;;;10.70;99.90;;;;;;4992233;28;20179;-67
2023/03/29 05:44:39;;;;;;;6.33;1.63;;;10.70;99.90;;;;;;4991848;28;20176;-68
2023/03/29 05:47:06;;;;;;;6.03;1.50;;;10.80;99.90;;;;;;4992048;28;20302;-67
2023/03/29 05:49:32;;;;;;;7.03;2.17;;;10.90;99.90;;;;;;4992233;28;20888;-66
2023/03/29 05:51:58;;;;;;;6.37;1.83;;;10.90;99.90;;;;;;4992300;28;20167;-66
2023/03/29 05:54:25;;;;;;;5.63;1.80;;;10.80;99.90;;;;;;4992502;28;20179;-66
2023/03/29 05:56:51;;;;;;;5.87;1.80;;;;;;;;;;4992801;28;20210;-67
2023/03/29 05:59:18;;;;;;;5.13;2.03;;;10.60;99.90;;;;;;4992427;28;20171;-67
2023/03/29 06:01:47;;;;;;;4.33;1.83;;;10.80;99.90;;;;;;4992254;28;20179;-70
2023/03/29 06:04:13;;;;;;;4.27;2.07;;;10.90;99.90;;;;;;4992498;28;20171;-69
2023/03/29 06:06:40;;;;;;;5.27;1.53;;;10.70;99.90;;;;;;4993198;28;20206;-69
2023/03/29 06:09:06;;;;;;;5.90;2.07;;;10.80;99.90;;;;;;4992859;28;20658;-69
2023/03/29 06:11:33;;;;;;;7.43;2.07;;;10.90;99.90;;;;;;4992399;28;20183;-70
2023/03/29 06:13:59;;;;;;;7.27;2.50;;;10.80;99.90;;;;;;4993245;28;20179;-70
2023/03/29 06:16:25;;;;;;;8.20;2.40;;;10.90;99.90;;;;;;4985530;28;20222;-70
2023/03/29 06:18:50;;;;;;;3.47;1.67;;;10.90;99.90;;;;;;4993736;28;20182;-69
2023/03/29 06:21:16;;;;;;;6.37;1.87;;;11.00;99.90;;;;;;4992671;28;20206;-70
2023/03/29 06:23:42;;;;;;;7.17;2.37;;;10.90;99.90;;;;;;4992931;28;20677;-70
2023/03/29 06:26:09;;;;;;;7.20;2.20;;;10.90;99.90;;;;;;4992919;28;20175;-69
2023/03/29 06:28:35;;;;;;;6.57;1.93;;;10.80;99.90;;;;;;4992773;28;20237;-69
2023/03/29 06:31:02;;;;;;;4.27;1.73;;;11.00;99.90;;;;;;4992406;28;20254;-70
2023/03/29 06:33:29;;;;;;;6.00;2.20;;;11.00;99.90;;;;;;4992342;28;20670;-69
2023/03/29 06:35:55;;;;;;;6.17;2.30;;;11.00;99.90;;;;;;4991849;28;20223;-69
2023/03/29 06:38:21;;;;;;;5.50;1.90;;;11.00;99.90;;;;;;4990954;28;20175;-69
2023/03/29 06:40:47;;;;;;;8.47;3.40;;;11.20;99.90;;;;;;4991934;28;20171;-69
2023/03/29 06:43:13;;;;;;;6.77;2.37;;;10.90;99.90;;;;;;4991929;28;20218;-69
2023/03/29 06:45:39;;;;;;;9.60;4.60;;;11.00;99.90;;;;;;4991273;28;20168;-69
2023/03/29 06:48:06;;;;;;;5.20;2.10;;;11.00;99.90;;;;;;4992427;28;20728;-69
2023/03/29 06:50:33;;;;;;;7.13;2.73;;;11.00;99.90;;;;;;4984609;28;20183;-69
2023/03/29 06:52:59;;;;;;;10.50;5.10;;;11.00;99.90;;;;;;4978786;28;20543;-68
2023/03/29 06:55:25;;;;;;;6.10;2.50;;;11.10;99.90;;;;;;4982042;28;20183;-69
2023/03/29 06:57:52;;;;;;;5.90;2.30;;;11.00;99.90;;;;;;4991237;28;20261;-69
2023/03/29 07:00:22;;;;;;;4.33;1.97;;;11.90;99.90;;;;;;4974368;28;20238;-69
2023/03/29 07:02:48;;;;;;;4.60;1.90;;;11.20;99.90;;;;;;4971639;28;20184;-70
2023/03/29 07:05:14;;;;;;;4.83;1.80;;;11.10;99.90;;;;;;4972893;28;20195;-69
2023/03/29 07:07:54;;;;;;;2.27;1.53;;;11.50;99.90;;;;;;4985244;28;20693;-68
2023/03/29 07:10:33;;;;;;;4.50;1.80;;;11.20;99.90;;;;;;4992005;28;20167;-69
2023/03/29 07:12:59;;;;;;;4.67;1.80;;;11.30;99.90;;;;;;4972702;28;20183;-69
2023/03/29 07:15:27;;;;;;;2.63;1.67;;;11.30;99.90;;;;;;4972828;28;20176;-69
2023/03/29 07:17:53;;;;;;;3.43;1.40;;;11.40;99.90;;;;;;4990908;28;20389;-69
2023/03/29 07:20:20;;;;;;;2.97;1.50;;;11.40;99.90;;;;;;4991914;28;20785;-69
2023/03/29 07:22:47;;;;;;;3.37;1.47;;;;;;;;;;4992284;28;20269;-69
2023/03/29 07:25:16;;;;;;;2.63;1.70;;;;;;;;;;4992398;28;20190;-69
2023/03/29 07:27:42;;;;;;;2.80;1.33;;;11.40;99.90;;;;;;4991497;28;20218;-69
2023/03/29 07:30:09;;;;;;;4.50;1.50;;;11.40;99.90;;;;;;4992119;28;20178;-69
2023/03/29 07:32:40;;;;;;;2.63;1.40;;;11.40;99.90;;;;;;4990636;28;20174;-69
2023/03/29 07:35:07;;;;;;;2.90;1.60;;;11.30;99.90;;;;;;4991640;28;20215;-69
2023/03/29 07:37:36;;;;;;;3.30;1.47;;;11.40;99.90;;;;;;4991348;28;20191;-69
2023/03/29 07:40:07;;;;;;;2.37;1.37;;;11.50;99.90;;;;;;4991292;28;20189;-68
2023/03/29 07:42:36;;;;;;;2.87;1.50;;;11.60;99.90;;;;;;4990605;28;20274;-69
2023/03/29 07:45:03;;;;;;;2.17;1.27;;;11.50;99.90;;;;;;4991910;28;20179;-69
2023/03/29 07:47:29;;;;;;;3.63;1.53;;;11.50;99.90;;;;;;4986286;28;20875;-70
2023/03/29 07:49:55;;;;;;;3.57;1.83;;;11.90;99.90;;;;;;4971655;28;20663;-69
2023/03/29 07:52:20;;;;;;;2.07;1.50;;;11.60;99.90;;;;;;4971390;28;20180;-68
2023/03/29 07:54:47;;;;;;;3.67;1.93;;;;;;;;;;4972411;28;20270;-69
2023/03/29 07:57:12;;;;;;;2.63;1.87;;;11.60;99.90;;;;;;4972206;28;20172;-69
2023/03/29 07:59:38;;;;;;;4.37;1.70;;;11.60;99.90;;;;;;4972350;28;20729;-69
2023/03/29 08:02:05;;;;;;;3.87;1.50;;;;;;;;;;4987117;28;20179;-69
2023/03/29 08:04:31;;;;;;;2.97;1.53;;;11.60;99.90;;;;;;4991392;28;20175;-69
2023/03/29 08:06:57;;;;;;;1.73;1.00;;;;;;;;;;4991751;28;20672;-70
2023/03/29 08:09:23;;;;;;;2.80;0.80;;;;;;;;;;4991687;28;20642;-69
2023/03/29 08:11:49;;;;;;;2.90;0.80;;;11.70;99.90;;;;;;4991417;28;20206;-70
2023/03/29 08:14:15;;;;;;;1.80;0.70;;;;;;;;;;4990002;28;20262;-69
2023/03/29 08:16:41;;;;;;;1.20;0.60;;;11.90;99.90;;;;;;4990814;28;20635;-70
2023/03/29 08:19:06;;;;;;;29.73;2.40;;;11.90;99.90;;;;;;4973514;28;20187;-70
2023/03/29 08:21:32;;;;;;;1.03;0.50;;;12.00;99.90;;;;;;4990877;28;20206;-70
2023/03/29 08:23:57;;;;;;;0.77;0.43;;;12.10;99.90;;;;;;4991476;28;20226;-70
2023/03/29 08:26:23;;;;;;;2.70;0.60;;;12.30;99.90;;;;;;4990784;28;20179;-70
2023/03/29 08:28:49;;;;;;;5.67;0.50;;;12.10;99.90;;;;;;4990487;28;20219;-71
2023/03/29 08:31:15;;;;;;;0.73;0.20;;;12.10;99.90;;;;;;4990058;28;20718;-70
2023/03/29 08:33:42;;;;;;;0.57;0.30;;;12.10;99.90;;;;;;4990683;28;20270;-70
2023/03/29 08:36:09;;;;;;;0.73;0.30;;;12.20;99.90;;;;;;4991830;28;20306;-70
2023/03/29 08:38:34;;;;;;;1.23;0.20;;;12.20;99.90;;;;;;4990868;28;20179;-70
2023/03/29 08:41:00;;;;;;;1.70;0.20;;;12.20;99.90;;;;;;4989576;28;20677;-67
2023/03/29 08:43:44;;;;;;;0.40;0.20;;;12.20;99.90;;;;;;4988518;28;20171;-68
2023/03/29 08:46:21;;;;;;;0.60;0.20;;;12.20;99.90;;;;;;4973444;28;20183;-68
2023/03/29 08:48:55;;;;;;;1.13;0.27;;;12.40;99.90;;;;;;4974348;28;20211;-68
2023/03/29 08:51:35;;;;;;;1.43;0.30;;;12.50;99.90;;;;;;4988374;28;20223;-67
2023/03/29 08:54:23;;;;;;;0.80;0.20;;;12.40;99.90;;;;;;4992821;28;20245;-67
2023/03/29 08:56:50;;;;;;;0.50;0.37;;;12.30;99.90;;;;;;4993385;28;20674;-68
2023/03/29 08:59:28;;;;;;;0.93;0.30;;;12.60;99.90;;;;;;4993742;28;20187;-67
2023/03/29 09:01:56;;;;;;;0.70;0.50;;;12.60;99.90;;;;;;4993591;28;20170;-68
2023/03/29 09:04:35;;;;;;;1.47;0.37;;;12.60;99.90;;;;;;4993834;28;20258;-67
2023/03/29 09:07:08;;;;;;;2.40;0.50;;;12.30;99.90;;;;;;4994120;28;20228;-68
2023/03/29 09:09:34;;;;;;;0.70;0.50;;;12.70;99.90;;;;;;4994234;28;20179;-67
2023/03/29 09:12:21;;;;;;;1.43;0.80;;;12.60;99.90;;;;;;4993986;28;20178;-67
2023/03/29 09:14:59;;;;;;;2.10;0.93;;;12.60;99.90;;;;;;4994615;28;20286;-67
2023/03/29 09:17:42;;;;;;;1.20;0.80;;;12.60;99.90;;;;;;4977058;28;20190;-67
2023/03/29 09:20:18;;;;;;;0.83;0.50;;;12.40;99.90;;;;;;4992815;28;20262;-67
2023/03/29 09:23:10;;;;;;;2.43;1.10;;;12.60;99.90;;;;;;4993091;28;20206;-67
2023/03/29 09:26:10;;;;;;;4.00;1.00;;;12.60;99.90;;;;;;4975409;28;20312;-68
2023/03/29 09:28:50;;;;;;;3.20;0.60;;;12.70;99.90;;;;;;4992879;28;20207;-66
2023/03/29 09:31:21;;;;;;;1.73;0.90;;;12.70;99.90;;;;;;4993216;28;20170;-67
2023/03/29 09:34:13;;;;;;;0.80;0.70;;;12.70;99.90;;;;;;4993883;28;20171;-67
2023/03/29 09:36:48;;;;;;;1.20;0.57;;;12.90;99.90;;;;;;4986368;28;20238;-69
2023/03/29 09:39:15;;;;;;;0.33;0.30;;;12.80;99.90;;;;;;4994123;28;20167;-70
2023/03/29 09:41:59;;;;;;;1.03;0.50;;;12.90;99.90;;;;;;4994217;28;20175;-69
2023/03/29 09:44:32;;;;;;;0.97;0.30;;;13.10;99.90;;;;;;4993498;28;20245;-69
2023/03/29 09:47:14;;;;;;;1.13;0.40;;;13.10;99.90;;;;;;4993422;28;20226;-69
2023/03/29 09:49:45;;;;;;;0.50;0.20;;;13.20;99.90;;;;;;4993936;28;20506;-69
2023/03/29 09:52:13;;;;;;;1.07;0.40;;;13.50;99.90;;;;;;4983526;28;20662;-70
2023/03/29 09:54:40;;;;;;;0.87;0.30;;;13.40;99.90;;;;;;4989808;28;20175;-70
2023/03/29 09:57:08;;;;;;;0.67;0.30;;;13.60;99.90;;;;;;4989640;28;20178;-70
2023/03/29 09:59:34;;;;;;;0.87;0.30;;;13.60;99.90;;;;;;4972989;28;20250;-70
2023/03/29 10:02:08;;;;;;;0.80;0.43;;;13.30;99.90;;;;;;4982829;28;20267;-70
2023/03/29 10:04:35;;;;;;;2.80;0.80;;;13.60;99.90;;;;;;4992395;28;20183;-69
2023/03/29 10:07:02;;;;;;;1.80;0.93;;;13.50;99.90;;;;;;4993691;28;20206;-69
2023/03/29 10:09:29;;;;;;;2.50;0.90;;;13.60;99.90;;;;;;4974879;28;20175;-70
2023/03/29 10:12:01;;;;;;;1.80;0.70;;;13.50;99.90;;;;;;4989681;28;20255;-70
2023/03/29 10:14:35;;;;;;;2.53;0.70;;;13.50;99.90;;;;;;4993049;28;20197;-70
2023/03/29 10:17:10;;;;;;;2.03;0.80;;;13.40;99.90;;;;;;4993442;28;20175;-70
2023/03/29 10:19:36;;;;;;;2.37;0.90;;;13.40;99.90;;;;;;4993325;28;20206;-70
2023/03/29 10:22:13;;;;;;;1.83;0.70;;;13.30;99.90;;;;;;4992353;28;20202;-70
2023/03/29 10:24:38;;;;;;;1.30;0.60;;;13.40;99.90;;;;;;4993362;28;20210;-69
2023/03/29 10:27:10;;;;;;;4.47;0.77;;;13.40;99.90;;;;;;4993073;28;20215;-70
2023/03/29 10:29:39;;;;;;;1.17;0.50;;;13.50;99.90;;;;;;4992884;28;20199;-69
2023/03/29 10:32:22;;;;;;;5.30;0.70;;;13.30;99.90;;;;;;4993058;28;20191;-70
2023/03/29 10:34:49;;;;;;;2.40;0.73;;;13.40;99.90;;;;;;4992347;28;20710;-70
2023/03/29 10:37:18;;;;;;;1.10;0.63;;;13.40;99.90;;;;;;4992188;28;20600;-70
2023/03/29 10:39:45;;;;;;;1.93;0.50;;;13.30;99.90;;;;;;4991464;28;20233;-69
2023/03/29 10:42:16;;;;;;;2.73;0.87;;;13.30;99.90;;;;;;4992257;28;20274;-70
2023/03/29 10:44:50;;;;;;;2.63;0.90;;;13.40;99.90;;;;;;4975480;28;20543;-69
2023/03/29 10:47:19;;;;;;;1.17;0.70;;;13.30;99.90;;;;;;4991946;28;20700;-69
2023/03/29 10:49:57;;;;;;;2.00;0.90;;;13.30;99.90;;;;;;4993155;28;20242;-69
2023/03/29 10:52:23;;;;;;;2.00;0.97;;;13.30;99.90;;;;;;4993171;28;20179;-69
2023/03/29 10:54:53;;;;;;;1.57;0.63;;;13.30;99.90;;;;;;4992735;28;20177;-69
2023/03/29 10:57:47;;;;;;;1.70;0.77;;;13.20;99.90;;;;;;4992548;28;20195;-69
2023/03/29 11:00:40;;;;;;;2.37;0.90;;;13.30;99.90;;;;;;4982096;28;20183;-69
2023/03/29 11:03:29;;;;;;;3.60;0.80;;;13.30;99.90;;;;;;4981487;28;20195;-69
2023/03/29 11:06:13;;;;;;;4.53;0.93;;;13.30;99.90;;;;;;4977701;28;20180;-68
2023/03/29 11:08:53;;;;;;;3.57;0.93;;;12.90;99.90;;;;;;4978336;28;20254;-69
2023/03/29 11:11:48;;;;;;;3.07;0.97;;;13.30;99.90;;;;;;4992547;28;20203;-68
2023/03/29 11:14:28;;;;;;;3.33;1.07;;;13.30;99.90;;;;;;4992000;28;20174;-69
2023/03/29 11:16:59;;;;;;;5.80;1.27;;;13.30;99.90;;;;;;4992007;28;20171;-68
2023/03/29 11:20:00;;;;;;;7.03;1.40;;;16.30;99.90;;;;;;4988367;28;20701;-67
2023/03/29 11:22:25;;;;;;;4.37;1.07;;;13.70;99.90;;;;;;4977631;28;20171;-68
2023/03/29 11:25:25;;;;;;;4.40;1.10;;;13.80;99.90;;;;;;4993622;28;20171;-68
2023/03/29 11:28:19;;;;;;;3.53;0.90;;;14.80;99.90;;;;;;4990908;28;20268;-67
2023/03/29 11:31:06;;;;;;;2.97;1.10;;;13.80;99.90;;;;;;4992387;28;20167;-67
2023/03/29 11:33:40;;;;;;;4.77;1.00;;;13.80;99.90;;;;;;4990666;28;20206;-67
2023/03/29 11:36:15;;;;;;;3.73;0.93;;;13.90;99.90;;;;;;4991770;28;20229;-67
2023/03/29 11:38:56;;;;;;;3.57;1.00;;;13.90;99.90;;;;;;4992302;28;20177;-67
2023/03/29 11:41:33;;;;;;;2.70;0.90;;;13.90;99.90;;;;;;4992116;28;20627;-67
2023/03/29 11:44:17;;;;;;;5.50;1.10;;;14.00;99.90;;;;;;4992149;28;20193;-67
2023/03/29 11:46:48;;;;;;;7.03;1.20;;;12.20;99.90;;;;;;4991285;28;20182;-67
2023/03/29 11:49:18;;;;;;;2.60;0.87;;;14.00;99.90;;;;;;4991772;28;20218;-67
2023/03/29 11:51:53;;;;;;;1.23;0.50;;;13.90;99.90;;;;;;4975790;28;20180;-67
2023/03/29 11:54:29;;;;;;;2.20;0.73;;;13.90;99.90;;;;;;4990956;28;20209;-68
2023/03/29 11:57:04;;;;;;;1.65;0.70;;;13.80;99.90;;;;;;4991436;28;20658;-68
2023/03/29 11:59:55;;;;;;;4.47;0.97;;;13.80;99.90;;;;;;4990961;28;20209;-67
2023/03/29 12:03:11;;;;;;;2.33;0.60;;;13.70;99.90;;;;;;4990629;28;20171;-68
2023/03/29 12:05:55;;;;;;;2.83;0.90;;;13.60;99.90;;;;;;4985554;28;20183;-68
2023/03/29 12:08:37;;;;;;;4.50;1.00;;;13.60;99.90;;;;;;4990873;28;20223;-67
2023/03/29 12:11:33;;;;;;;1.87;0.80;;;13.50;99.90;;;;;;4991211;28;20179;-69
2023/03/29 12:14:22;;;;;;;4.50;1.03;;;13.50;99.90;;;;;;4990945;28;20237;-69
2023/03/29 12:16:53;;;;;;;7.67;1.40;;;13.40;99.90;;;;;;4990298;28;20178;-69
2023/03/29 12:19:21;;;;;;;4.30;1.07;;;13.50;99.90;;;;;;4989601;28;20210;-69
2023/03/29 12:21:48;;;;;;;6.67;1.43;;;13.40;99.90;;;;;;4987108;28;20670;-69
2023/03/29 12:24:16;;;;;;;6.70;1.60;;;13.00;99.90;;;;;;4990991;28;20615;-69
2023/03/29 12:26:53;;;;;;;3.10;1.10;;;13.70;99.90;;;;;;4990977;28;20580;-69
2023/03/29 12:29:27;;;;;;;6.43;1.60;;;13.50;99.90;;;;;;4990718;28;20210;-69
2023/03/29 12:32:20;;;;;;;8.50;2.00;;;13.70;99.90;;;;;;4990004;28;20166;-69
2023/03/29 12:35:14;;;;;;;7.47;1.83;;;13.60;99.90;;;;;;4989380;28;20175;-68
2023/03/29 12:38:03;;;;;;;11.50;1.93;;;13.60;99.90;;;;;;4990627;28;20258;-69
2023/03/29 12:40:40;;;;;;;7.97;1.80;;;14.00;99.90;;;;;;4971959;28;20180;-69
2023/03/29 12:43:13;;;;;;;9.27;1.70;;;13.50;99.90;;;;;;4977810;28;20178;-70
2023/03/29 12:45:47;;;;;;;4.97;1.10;;;13.60;99.90;;;;;;4989761;28;20655;-68
2023/03/29 12:48:19;;;;;;;4.93;1.27;;;13.60;99.90;;;;;;4990403;28;20207;-68
2023/03/29 12:50:53;;;;;;;7.00;1.30;;;13.60;99.90;;;;;;4976348;28;20183;-69
2023/03/29 12:53:25;;;;;;;6.10;1.30;;;13.60;99.90;;;;;;4990882;28;20175;-68
2023/03/29 12:56:08;;;;;;;4.77;1.50;;;13.00;99.90;;;;;;4990552;28;20270;-69
2023/03/29 12:58:58;;;;;;;6.07;1.07;;;13.30;99.90;;;;;;4991147;28;20270;-70
2023/03/29 13:01:30;;;;;;;3.33;1.10;;;13.30;99.90;;;;;;4990972;28;20202;-68
2023/03/29 13:03:56;;;;;;;6.13;1.50;;;;;;;;;;4989301;28;20175;-70
2023/03/29 13:06:50;;;;;;;3.70;1.10;;;13.50;99.90;;;;;;4990610;28;20512;-70
2023/03/29 13:09:28;;;;;;;3.57;1.07;;;13.70;99.90;;;;;;4988229;28;20191;-71